SBGO/GYN METAR and TAF weather

Enter ICAO airport designator
Station Type Date Time Source
SBGO METAR 2019/10/21 03:00 UTC NOAA

SBGO 210300Z 14009KT 9999 FEW050TCU BKN090 27/18 Q1014


Station Type Date Time Source
SBGO Decoded METAR 2019/10/21 03:00 UTC NOAA

Goiania Aeroporto , Brazil (SBGO) 16-38S 049-13W
Oct 20, 2019 - 11:00 PM EDT / 2019.10.21 0300 UTC
Wind: from the SE (140 degrees) at 10 MPH (9 KT):0
Visibility: greater than 7 mile(s):0
Sky conditions: mostly cloudy
Weather: Towering cumulus clouds observed
Temperature: 80 F (27 C)
Dew Point: 64 F (18 C)
Relative Humidity: 57%
Pressure (altimeter): 29.94 in. Hg (1014 hPa)
ob: SBGO 210300Z 14009KT 9999 FEW050TCU BKN090 27/18 Q1014
cycle: 3

Station Type Date Time Source
SBGO TAF 2019/10/21 06:06 UTC NOAA

TAF TAF SBGO 210400Z 2106/2206 14008KT CAVOK TN22/2107Z TX35/2117Z
BECMG 2112/2114 18009KT 9999 FEW030
BECMG 2116/2118 SCT030 FEW035TCU PROB30
TEMPO 2119/2122 8000 TSRA SCT030 FEW035CB
BECMG 2200/2202 13003KT CAVOK
RMK PCQ

Example: see airport list